sensor_id;sensor_type;location;lat;lon;timestamp;P1;durP1;ratioP1;P2;durP2;ratioP2
34585;SDS011;20816;50.950;11.108;2022-08-21T00:01:39;7.47;;;5.20;;
34585;SDS011;20816;50.950;11.108;2022-08-21T00:04:06;6.43;;;4.15;;
34585;SDS011;20816;50.950;11.108;2022-08-21T00:06:35;6.25;;;4.55;;
34585;SDS011;20816;50.950;11.108;2022-08-21T00:09:02;9.35;;;5.18;;
34585;SDS011;20816;50.950;11.108;2022-08-21T00:11:33;9.13;;;5.53;;
34585;SDS011;20816;50.950;11.108;2022-08-21T00:14:01;8.82;;;5.55;;
34585;SDS011;20816;50.950;11.108;2022-08-21T00:16:30;9.30;;;5.35;;
34585;SDS011;20816;50.950;11.108;2022-08-21T00:18:57;6.78;;;4.30;;
34585;SDS011;20816;50.950;11.108;2022-08-21T00:21:24;8.52;;;6.10;;
34585;SDS011;20816;50.950;11.108;2022-08-21T00:23:51;10.48;;;5.40;;
34585;SDS011;20816;50.950;11.108;2022-08-21T00:26:18;8.40;;;4.85;;
34585;SDS011;20816;50.950;11.108;2022-08-21T00:28:45;9.65;;;6.25;;
34585;SDS011;20816;50.950;11.108;2022-08-21T00:31:15;11.45;;;6.05;;
34585;SDS011;20816;50.950;11.108;2022-08-21T00:33:43;11.18;;;5.45;;
34585;SDS011;20816;50.950;11.108;2022-08-21T00:36:10;9.93;;;6.35;;
34585;SDS011;20816;50.950;11.108;2022-08-21T00:38:37;10.73;;;6.07;;
34585;SDS011;20816;50.950;11.108;2022-08-21T00:41:05;8.40;;;5.90;;
34585;SDS011;20816;50.950;11.108;2022-08-21T00:43:53;11.02;;;5.45;;
34585;SDS011;20816;50.950;11.108;2022-08-21T00:46:21;7.35;;;4.88;;
34585;SDS011;20816;50.950;11.108;2022-08-21T00:48:53;10.75;;;5.18;;
34585;SDS011;20816;50.950;11.108;2022-08-21T00:51:25;8.93;;;5.88;;
34585;SDS011;20816;50.950;11.108;2022-08-21T00:54:03;8.05;;;5.18;;
34585;SDS011;20816;50.950;11.108;2022-08-21T00:56:30;9.05;;;5.35;;
34585;SDS011;20816;50.950;11.108;2022-08-21T00:58:57;10.57;;;5.63;;
34585;SDS011;20816;50.950;11.108;2022-08-21T01:01:26;8.00;;;5.22;;
34585;SDS011;20816;50.950;11.108;2022-08-21T01:03:53;9.55;;;5.20;;
34585;SDS011;20816;50.950;11.108;2022-08-21T01:06:20;9.93;;;5.80;;
34585;SDS011;20816;50.950;11.108;2022-08-21T01:08:47;11.60;;;6.18;;
34585;SDS011;20816;50.950;11.108;2022-08-21T01:11:14;9.35;;;5.47;;
34585;SDS011;20816;50.950;11.108;2022-08-21T01:13:42;11.13;;;6.88;;
34585;SDS011;20816;50.950;11.108;2022-08-21T01:16:13;8.43;;;5.65;;
34585;SDS011;20816;50.950;11.108;2022-08-21T01:18:44;11.43;;;6.32;;
34585;SDS011;20816;50.950;11.108;2022-08-21T01:21:16;11.27;;;6.53;;
34585;SDS011;20816;50.950;11.108;2022-08-21T01:23:53;12.13;;;6.50;;
34585;SDS011;20816;50.950;11.108;2022-08-21T01:26:23;9.18;;;6.22;;
34585;SDS011;20816;50.950;11.108;2022-08-21T01:29:01;12.75;;;6.68;;
34585;SDS011;20816;50.950;11.108;2022-08-21T01:31:33;7.72;;;5.32;;
34585;SDS011;20816;50.950;11.108;2022-08-21T01:34:00;9.32;;;5.82;;
34585;SDS011;20816;50.950;11.108;2022-08-21T01:36:27;9.20;;;6.05;;
34585;SDS011;20816;50.950;11.108;2022-08-21T01:38:54;10.88;;;6.68;;
34585;SDS011;20816;50.950;11.108;2022-08-21T01:41:21;9.73;;;6.28;;
34585;SDS011;20816;50.950;11.108;2022-08-21T01:43:48;11.63;;;7.13;;
34585;SDS011;20816;50.950;11.108;2022-08-21T01:46:15;8.57;;;5.25;;
34585;SDS011;20816;50.950;11.108;2022-08-21T01:48:43;8.82;;;5.28;;
34585;SDS011;20816;50.950;11.108;2022-08-21T01:51:10;11.27;;;6.20;;
34585;SDS011;20816;50.950;11.108;2022-08-21T01:53:38;9.77;;;6.07;;
34585;SDS011;20816;50.950;11.108;2022-08-21T01:56:07;8.85;;;5.68;;
34585;SDS011;20816;50.950;11.108;2022-08-21T01:58:37;9.32;;;5.97;;
34585;SDS011;20816;50.950;11.108;2022-08-21T02:01:05;14.20;;;6.45;;
34585;SDS011;20816;50.950;11.108;2022-08-21T02:03:32;8.07;;;5.68;;
34585;SDS011;20816;50.950;11.108;2022-08-21T02:06:01;10.13;;;5.60;;
34585;SDS011;20816;50.950;11.108;2022-08-21T02:08:30;10.00;;;5.60;;
34585;SDS011;20816;50.950;11.108;2022-08-21T02:10:58;9.48;;;5.60;;
34585;SDS011;20816;50.950;11.108;2022-08-21T02:13:26;11.20;;;6.45;;
34585;SDS011;20816;50.950;11.108;2022-08-21T02:15:52;9.57;;;6.13;;
34585;SDS011;20816;50.950;11.108;2022-08-21T02:18:19;9.82;;;6.03;;
34585;SDS011;20816;50.950;11.108;2022-08-21T02:20:46;8.60;;;5.53;;
34585;SDS011;20816;50.950;11.108;2022-08-21T02:23:21;9.27;;;5.75;;
34585;SDS011;20816;50.950;11.108;2022-08-21T02:25:52;12.20;;;6.22;;
34585;SDS011;20816;50.950;11.108;2022-08-21T02:28:20;10.18;;;6.15;;
34585;SDS011;20816;50.950;11.108;2022-08-21T02:30:48;11.10;;;6.32;;
34585;SDS011;20816;50.950;11.108;2022-08-21T02:33:15;8.05;;;5.75;;
34585;SDS011;20816;50.950;11.108;2022-08-21T02:35:42;8.32;;;5.00;;
34585;SDS011;20816;50.950;11.108;2022-08-21T02:38:12;9.40;;;5.68;;
34585;SDS011;20816;50.950;11.108;2022-08-21T02:40:42;8.20;;;5.57;;
34585;SDS011;20816;50.950;11.108;2022-08-21T02:43:16;8.35;;;5.68;;
34585;SDS011;20816;50.950;11.108;2022-08-21T02:45:45;8.00;;;5.45;;
34585;SDS011;20816;50.950;11.108;2022-08-21T02:48:13;10.75;;;5.60;;
34585;SDS011;20816;50.950;11.108;2022-08-21T02:50:44;10.63;;;5.60;;
34585;SDS011;20816;50.950;11.108;2022-08-21T02:53:17;7.18;;;5.25;;
34585;SDS011;20816;50.950;11.108;2022-08-21T02:55:44;6.60;;;5.18;;
34585;SDS011;20816;50.950;11.108;2022-08-21T02:58:14;7.18;;;5.28;;
34585;SDS011;20816;50.950;11.108;2022-08-21T03:00:43;10.68;;;5.45;;
34585;SDS011;20816;50.950;11.108;2022-08-21T03:03:10;12.70;;;6.00;;
34585;SDS011;20816;50.950;11.108;2022-08-21T03:05:37;9.13;;;5.90;;
34585;SDS011;20816;50.950;11.108;2022-08-21T03:08:05;7.90;;;4.53;;
34585;SDS011;20816;50.950;11.108;2022-08-21T03:10:40;13.02;;;6.82;;
34585;SDS011;20816;50.950;11.108;2022-08-21T03:13:08;7.20;;;4.95;;
34585;SDS011;20816;50.950;11.108;2022-08-21T03:15:36;9.95;;;5.47;;
34585;SDS011;20816;50.950;11.108;2022-08-21T03:18:04;8.55;;;5.28;;
34585;SDS011;20816;50.950;11.108;2022-08-21T03:20:31;8.60;;;5.88;;
34585;SDS011;20816;50.950;11.108;2022-08-21T03:22:59;7.63;;;5.50;;
34585;SDS011;20816;50.950;11.108;2022-08-21T03:25:27;7.80;;;5.03;;
34585;SDS011;20816;50.950;11.108;2022-08-21T03:28:06;7.63;;;5.72;;
34585;SDS011;20816;50.950;11.108;2022-08-21T03:30:39;7.60;;;4.82;;
34585;SDS011;20816;50.950;11.108;2022-08-21T03:33:07;7.20;;;4.75;;
34585;SDS011;20816;50.950;11.108;2022-08-21T03:35:38;7.40;;;5.25;;
34585;SDS011;20816;50.950;11.108;2022-08-21T03:38:05;6.55;;;4.47;;
34585;SDS011;20816;50.950;11.108;2022-08-21T03:40:31;8.20;;;5.22;;
34585;SDS011;20816;50.950;11.108;2022-08-21T03:42:58;6.85;;;4.35;;
34585;SDS011;20816;50.950;11.108;2022-08-21T03:45:25;5.32;;;4.10;;
34585;SDS011;20816;50.950;11.108;2022-08-21T03:47:59;5.90;;;4.13;;
34585;SDS011;20816;50.950;11.108;2022-08-21T03:50:29;7.20;;;4.78;;
34585;SDS011;20816;50.950;11.108;2022-08-21T03:53:00;6.63;;;4.47;;
34585;SDS011;20816;50.950;11.108;2022-08-21T03:55:26;7.13;;;4.32;;
34585;SDS011;20816;50.950;11.108;2022-08-21T03:57:53;8.38;;;4.93;;
34585;SDS011;20816;50.950;11.108;2022-08-21T04:00:20;7.38;;;5.18;;
34585;SDS011;20816;50.950;11.108;2022-08-21T04:02:47;8.52;;;5.28;;
34585;SDS011;20816;50.950;11.108;2022-08-21T04:05:15;6.95;;;4.45;;
34585;SDS011;20816;50.950;11.108;2022-08-21T04:07:54;5.47;;;3.72;;
34585;SDS011;20816;50.950;11.108;2022-08-21T04:10:22;5.88;;;3.72;;
34585;SDS011;20816;50.950;11.108;2022-08-21T04:12:51;6.13;;;4.30;;
34585;SDS011;20816;50.950;11.108;2022-08-21T04:15:19;7.72;;;4.25;;
34585;SDS011;20816;50.950;11.108;2022-08-21T04:17:46;7.30;;;4.43;;
34585;SDS011;20816;50.950;11.108;2022-08-21T04:20:15;5.63;;;4.10;;
34585;SDS011;20816;50.950;11.108;2022-08-21T04:22:42;7.28;;;3.78;;
34585;SDS011;20816;50.950;11.108;2022-08-21T04:25:11;6.55;;;4.47;;
34585;SDS011;20816;50.950;11.108;2022-08-21T04:27:39;6.25;;;4.20;;
34585;SDS011;20816;50.950;11.108;2022-08-21T04:30:06;6.80;;;4.72;;
34585;SDS011;20816;50.950;11.108;2022-08-21T04:32:35;7.18;;;3.70;;
34585;SDS011;20816;50.950;11.108;2022-08-21T04:35:04;13.75;;;4.28;;
34585;SDS011;20816;50.950;11.108;2022-08-21T04:37:33;5.10;;;3.72;;
34585;SDS011;20816;50.950;11.108;2022-08-21T04:40:07;7.45;;;4.25;;
34585;SDS011;20816;50.950;11.108;2022-08-21T04:42:40;5.07;;;3.50;;
34585;SDS011;20816;50.950;11.108;2022-08-21T04:47:49;5.20;;;3.78;;
34585;SDS011;20816;50.950;11.108;2022-08-21T04:50:18;4.60;;;3.60;;
34585;SDS011;20816;50.950;11.108;2022-08-21T04:52:46;5.53;;;3.85;;
34585;SDS011;20816;50.950;11.108;2022-08-21T04:55:13;5.93;;;3.92;;
34585;SDS011;20816;50.950;11.108;2022-08-21T04:57:42;7.95;;;4.15;;
34585;SDS011;20816;50.950;11.108;2022-08-21T05:00:14;5.93;;;3.88;;
34585;SDS011;20816;50.950;11.108;2022-08-21T05:02:45;5.90;;;3.58;;
34585;SDS011;20816;50.950;11.108;2022-08-21T05:05:13;6.35;;;4.10;;
34585;SDS011;20816;50.950;11.108;2022-08-21T05:07:41;5.10;;;3.70;;
34585;SDS011;20816;50.950;11.108;2022-08-21T05:10:10;6.45;;;4.35;;
34585;SDS011;20816;50.950;11.108;2022-08-21T05:12:39;6.35;;;4.15;;
34585;SDS011;20816;50.950;11.108;2022-08-21T05:15:08;6.43;;;3.42;;
34585;SDS011;20816;50.950;11.108;2022-08-21T05:17:39;9.60;;;4.53;;
34585;SDS011;20816;50.950;11.108;2022-08-21T05:20:07;5.60;;;4.00;;
34585;SDS011;20816;50.950;11.108;2022-08-21T05:22:35;6.65;;;4.50;;
34585;SDS011;20816;50.950;11.108;2022-08-21T05:25:02;4.57;;;3.28;;
34585;SDS011;20816;50.950;11.108;2022-08-21T05:27:35;5.43;;;3.72;;
34585;SDS011;20816;50.950;11.108;2022-08-21T05:30:05;5.30;;;3.97;;
34585;SDS011;20816;50.950;11.108;2022-08-21T05:32:34;7.50;;;3.97;;
34585;SDS011;20816;50.950;11.108;2022-08-21T05:35:01;6.75;;;4.45;;
34585;SDS011;20816;50.950;11.108;2022-08-21T05:37:29;6.93;;;4.75;;
34585;SDS011;20816;50.950;11.108;2022-08-21T05:39:56;4.55;;;3.88;;
34585;SDS011;20816;50.950;11.108;2022-08-21T05:42:43;5.03;;;4.13;;
34585;SDS011;20816;50.950;11.108;2022-08-21T05:45:20;5.30;;;3.20;;
34585;SDS011;20816;50.950;11.108;2022-08-21T05:48:09;5.20;;;3.83;;
34585;SDS011;20816;50.950;11.108;2022-08-21T05:50:36;5.32;;;3.40;;
34585;SDS011;20816;50.950;11.108;2022-08-21T05:53:04;5.70;;;3.95;;
34585;SDS011;20816;50.950;11.108;2022-08-21T05:55:33;5.72;;;4.13;;
34585;SDS011;20816;50.950;11.108;2022-08-21T05:58:00;6.07;;;3.88;;
34585;SDS011;20816;50.950;11.108;2022-08-21T06:00:26;5.85;;;4.10;;
34585;SDS011;20816;50.950;11.108;2022-08-21T06:02:53;9.07;;;4.50;;
34585;SDS011;20816;50.950;11.108;2022-08-21T06:05:20;5.30;;;3.85;;
34585;SDS011;20816;50.950;11.108;2022-08-21T06:08:02;6.03;;;4.20;;
34585;SDS011;20816;50.950;11.108;2022-08-21T06:10:29;5.95;;;4.25;;
34585;SDS011;20816;50.950;11.108;2022-08-21T06:12:55;6.82;;;4.10;;
34585;SDS011;20816;50.950;11.108;2022-08-21T06:15:22;7.72;;;4.47;;
34585;SDS011;20816;50.950;11.108;2022-08-21T06:17:49;6.15;;;4.82;;
34585;SDS011;20816;50.950;11.108;2022-08-21T06:20:16;9.45;;;4.82;;
34585;SDS011;20816;50.950;11.108;2022-08-21T06:22:42;6.63;;;4.30;;
34585;SDS011;20816;50.950;11.108;2022-08-21T06:25:09;7.60;;;5.53;;
34585;SDS011;20816;50.950;11.108;2022-08-21T06:27:36;8.82;;;5.57;;
34585;SDS011;20816;50.950;11.108;2022-08-21T06:30:04;8.15;;;5.45;;
34585;SDS011;20816;50.950;11.108;2022-08-21T06:32:31;9.52;;;5.38;;
34585;SDS011;20816;50.950;11.108;2022-08-21T06:34:58;8.82;;;5.47;;
34585;SDS011;20816;50.950;11.108;2022-08-21T06:37:25;7.22;;;4.97;;
34585;SDS011;20816;50.950;11.108;2022-08-21T06:39:52;7.75;;;5.03;;
34585;SDS011;20816;50.950;11.108;2022-08-21T06:42:18;6.43;;;4.47;;
34585;SDS011;20816;50.950;11.108;2022-08-21T06:44:45;6.40;;;4.50;;
34585;SDS011;20816;50.950;11.108;2022-08-21T06:47:12;5.85;;;4.40;;
34585;SDS011;20816;50.950;11.108;2022-08-21T06:49:38;7.40;;;4.78;;
34585;SDS011;20816;50.950;11.108;2022-08-21T06:52:08;5.43;;;4.20;;
34585;SDS011;20816;50.950;11.108;2022-08-21T06:54:36;6.30;;;4.53;;
34585;SDS011;20816;50.950;11.108;2022-08-21T06:57:03;6.15;;;4.03;;
34585;SDS011;20816;50.950;11.108;2022-08-21T06:59:30;6.47;;;4.50;;
34585;SDS011;20816;50.950;11.108;2022-08-21T07:01:58;5.65;;;4.78;;
34585;SDS011;20816;50.950;11.108;2022-08-21T07:04:25;5.57;;;4.20;;
34585;SDS011;20816;50.950;11.108;2022-08-21T07:06:52;7.30;;;3.90;;
34585;SDS011;20816;50.950;11.108;2022-08-21T07:09:19;5.40;;;3.65;;
34585;SDS011;20816;50.950;11.108;2022-08-21T07:11:51;5.95;;;4.40;;
34585;SDS011;20816;50.950;11.108;2022-08-21T07:14:19;5.72;;;4.30;;
34585;SDS011;20816;50.950;11.108;2022-08-21T07:16:47;4.68;;;3.55;;
34585;SDS011;20816;50.950;11.108;2022-08-21T07:19:14;5.97;;;3.83;;
34585;SDS011;20816;50.950;11.108;2022-08-21T07:21:41;6.97;;;4.78;;
34585;SDS011;20816;50.950;11.108;2022-08-21T07:24:07;10.25;;;5.07;;
34585;SDS011;20816;50.950;11.108;2022-08-21T07:26:35;7.00;;;3.92;;
34585;SDS011;20816;50.950;11.108;2022-08-21T07:29:02;6.22;;;4.18;;
34585;SDS011;20816;50.950;11.108;2022-08-21T07:31:29;6.60;;;4.35;;
34585;SDS011;20816;50.950;11.108;2022-08-21T07:33:56;6.97;;;5.07;;
34585;SDS011;20816;50.950;11.108;2022-08-21T07:36:23;6.97;;;4.60;;
34585;SDS011;20816;50.950;11.108;2022-08-21T07:38:50;5.88;;;4.50;;
34585;SDS011;20816;50.950;11.108;2022-08-21T07:41:19;5.95;;;4.43;;
34585;SDS011;20816;50.950;11.108;2022-08-21T07:43:48;5.22;;;3.83;;
34585;SDS011;20816;50.950;11.108;2022-08-21T07:46:18;5.38;;;4.22;;
34585;SDS011;20816;50.950;11.108;2022-08-21T07:48:44;6.65;;;4.60;;
34585;SDS011;20816;50.950;11.108;2022-08-21T07:51:12;7.72;;;4.50;;
34585;SDS011;20816;50.950;11.108;2022-08-21T07:53:40;5.80;;;4.57;;
34585;SDS011;20816;50.950;11.108;2022-08-21T07:56:07;5.70;;;4.18;;
34585;SDS011;20816;50.950;11.108;2022-08-21T07:58:37;6.13;;;3.97;;
34585;SDS011;20816;50.950;11.108;2022-08-21T08:01:05;7.90;;;4.60;;
34585;SDS011;20816;50.950;11.108;2022-08-21T08:03:32;4.50;;;3.55;;
34585;SDS011;20816;50.950;11.108;2022-08-21T08:06:00;7.65;;;3.72;;
34585;SDS011;20816;50.950;11.108;2022-08-21T08:08:27;7.82;;;3.80;;
34585;SDS011;20816;50.950;11.108;2022-08-21T08:10:53;4.15;;;3.10;;
34585;SDS011;20816;50.950;11.108;2022-08-21T08:13:23;4.55;;;3.58;;
34585;SDS011;20816;50.950;11.108;2022-08-21T08:15:50;7.22;;;4.25;;
34585;SDS011;20816;50.950;11.108;2022-08-21T08:18:17;6.90;;;3.60;;
34585;SDS011;20816;50.950;11.108;2022-08-21T08:20:43;3.78;;;3.05;;
34585;SDS011;20816;50.950;11.108;2022-08-21T08:23:14;5.90;;;3.55;;
34585;SDS011;20816;50.950;11.108;2022-08-21T08:25:41;5.32;;;4.25;;
34585;SDS011;20816;50.950;11.108;2022-08-21T08:28:08;3.83;;;3.00;;
34585;SDS011;20816;50.950;11.108;2022-08-21T08:30:43;3.55;;;3.10;;
34585;SDS011;20816;50.950;11.108;2022-08-21T08:33:11;3.50;;;2.78;;
34585;SDS011;20816;50.950;11.108;2022-08-21T08:35:44;4.15;;;3.08;;
34585;SDS011;20816;50.950;11.108;2022-08-21T08:38:13;4.05;;;3.30;;
34585;SDS011;20816;50.950;11.108;2022-08-21T08:43:39;4.25;;;2.75;;
34585;SDS011;20816;50.950;11.108;2022-08-21T08:46:12;3.47;;;2.30;;
34585;SDS011;20816;50.950;11.108;2022-08-21T08:51:26;5.00;;;3.22;;
34585;SDS011;20816;50.950;11.108;2022-08-21T08:54:08;5.22;;;3.80;;
34585;SDS011;20816;50.950;11.108;2022-08-21T08:56:38;5.30;;;3.95;;
34585;SDS011;20816;50.950;11.108;2022-08-21T08:59:09;8.98;;;4.80;;
34585;SDS011;20816;50.950;11.108;2022-08-21T09:01:42;5.82;;;4.22;;
34585;SDS011;20816;50.950;11.108;2022-08-21T09:04:10;6.30;;;4.03;;
34585;SDS011;20816;50.950;11.108;2022-08-21T09:06:43;4.85;;;3.55;;
34585;SDS011;20816;50.950;11.108;2022-08-21T09:12:25;5.57;;;3.85;;
34585;SDS011;20816;50.950;11.108;2022-08-21T09:21:16;4.95;;;2.95;;
34585;SDS011;20816;50.950;11.108;2022-08-21T09:26:27;3.22;;;2.40;;
34585;SDS011;20816;50.950;11.108;2022-08-21T09:28:59;4.20;;;3.67;;
34585;SDS011;20816;50.950;11.108;2022-08-21T09:31:31;7.95;;;3.15;;
34585;SDS011;20816;50.950;11.108;2022-08-21T09:34:01;3.85;;;3.17;;
34585;SDS011;20816;50.950;11.108;2022-08-21T09:36:40;3.90;;;2.75;;
34585;SDS011;20816;50.950;11.108;2022-08-21T09:39:10;4.38;;;2.92;;
34585;SDS011;20816;50.950;11.108;2022-08-21T09:41:39;4.38;;;3.25;;
34585;SDS011;20816;50.950;11.108;2022-08-21T09:44:07;4.78;;;3.13;;
34585;SDS011;20816;50.950;11.108;2022-08-21T09:46:35;2.83;;;2.40;;
34585;SDS011;20816;50.950;11.108;2022-08-21T09:49:03;4.95;;;2.50;;
34585;SDS011;20816;50.950;11.108;2022-08-21T09:51:38;3.33;;;2.45;;
34585;SDS011;20816;50.950;11.108;2022-08-21T09:54:18;4.40;;;3.20;;
34585;SDS011;20816;50.950;11.108;2022-08-21T09:56:56;3.38;;;2.38;;
34585;SDS011;20816;50.950;11.108;2022-08-21T09:59:45;4.50;;;2.35;;
34585;SDS011;20816;50.950;11.108;2022-08-21T10:04:51;2.70;;;2.10;;
34585;SDS011;20816;50.950;11.108;2022-08-21T10:07:23;1.60;;;1.40;;
34585;SDS011;20816;50.950;11.108;2022-08-21T10:09:58;3.10;;;2.05;;
34585;SDS011;20816;50.950;11.108;2022-08-21T10:18:20;3.55;;;2.17;;
34585;SDS011;20816;50.950;11.108;2022-08-21T10:35:13;2.55;;;1.95;;
34585;SDS011;20816;50.950;11.108;2022-08-21T10:38:05;3.63;;;2.08;;
34585;SDS011;20816;50.950;11.108;2022-08-21T10:44:08;2.45;;;2.05;;
34585;SDS011;20816;50.950;11.108;2022-08-21T10:46:50;2.50;;;2.13;;
34585;SDS011;20816;50.950;11.108;2022-08-21T10:49:34;3.38;;;1.90;;
34585;SDS011;20816;50.950;11.108;2022-08-21T10:52:35;2.65;;;1.98;;
34585;SDS011;20816;50.950;11.108;2022-08-21T10:55:14;4.68;;;2.03;;
34585;SDS011;20816;50.950;11.108;2022-08-21T10:57:46;2.97;;;2.05;;
34585;SDS011;20816;50.950;11.108;2022-08-21T11:00:36;4.30;;;1.27;;
34585;SDS011;20816;50.950;11.108;2022-08-21T11:03:16;3.25;;;1.42;;
34585;SDS011;20816;50.950;11.108;2022-08-21T11:05:47;2.35;;;1.77;;
34585;SDS011;20816;50.950;11.108;2022-08-21T11:08:26;2.33;;;1.40;;
34585;SDS011;20816;50.950;11.108;2022-08-21T11:11:06;5.80;;;1.25;;
34585;SDS011;20816;50.950;11.108;2022-08-21T11:16:31;3.30;;;1.50;;
34585;SDS011;20816;50.950;11.108;2022-08-21T11:19:22;2.85;;;1.70;;
34585;SDS011;20816;50.950;11.108;2022-08-21T11:22:06;2.45;;;1.70;;
34585;SDS011;20816;50.950;11.108;2022-08-21T11:24:42;1.90;;;1.58;;
34585;SDS011;20816;50.950;11.108;2022-08-21T11:27:35;2.65;;;1.65;;
34585;SDS011;20816;50.950;11.108;2022-08-21T11:30:06;2.45;;;1.20;;
34585;SDS011;20816;50.950;11.108;2022-08-21T11:32:39;2.00;;;1.80;;
34585;SDS011;20816;50.950;11.108;2022-08-21T11:35:42;2.03;;;1.80;;
34585;SDS011;20816;50.950;11.108;2022-08-21T11:38:14;3.55;;;1.90;;
34585;SDS011;20816;50.950;11.108;2022-08-21T11:41:11;4.28;;;2.20;;
34585;SDS011;20816;50.950;11.108;2022-08-21T11:43:47;5.45;;;1.80;;
34585;SDS011;20816;50.950;11.108;2022-08-21T11:57:19;2.10;;;1.58;;
34585;SDS011;20816;50.950;11.108;2022-08-21T11:59:51;2.75;;;1.60;;
34585;SDS011;20816;50.950;11.108;2022-08-21T12:02:23;2.08;;;1.50;;
34585;SDS011;20816;50.950;11.108;2022-08-21T12:04:59;3.55;;;1.42;;
34585;SDS011;20816;50.950;11.108;2022-08-21T12:10:05;4.20;;;1.60;;
34585;SDS011;20816;50.950;11.108;2022-08-21T12:12:36;2.00;;;1.45;;
34585;SDS011;20816;50.950;11.108;2022-08-21T12:15:13;2.00;;;1.27;;
34585;SDS011;20816;50.950;11.108;2022-08-21T12:20:43;2.67;;;1.50;;
34585;SDS011;20816;50.950;11.108;2022-08-21T12:23:26;3.35;;;1.60;;
34585;SDS011;20816;50.950;11.108;2022-08-21T12:26:09;2.55;;;1.55;;
34585;SDS011;20816;50.950;11.108;2022-08-21T12:28:50;2.00;;;1.17;;
34585;SDS011;20816;50.950;11.108;2022-08-21T12:31:18;2.70;;;1.67;;
34585;SDS011;20816;50.950;11.108;2022-08-21T12:34:05;3.97;;;1.35;;
34585;SDS011;20816;50.950;11.108;2022-08-21T12:36:42;3.03;;;1.08;;
34585;SDS011;20816;50.950;11.108;2022-08-21T12:39:15;1.85;;;1.10;;
34585;SDS011;20816;50.950;11.108;2022-08-21T12:42:36;2.78;;;1.30;;
34585;SDS011;20816;50.950;11.108;2022-08-21T12:44:43;1.67;;;1.13;;
34585;SDS011;20816;50.950;11.108;2022-08-21T12:47:23;2.75;;;1.15;;
34585;SDS011;20816;50.950;11.108;2022-08-21T12:49:53;2.10;;;1.10;;
34585;SDS011;20816;50.950;11.108;2022-08-21T12:52:32;1.55;;;1.20;;
34585;SDS011;20816;50.950;11.108;2022-08-21T12:55:05;2.30;;;1.42;;
34585;SDS011;20816;50.950;11.108;2022-08-21T12:57:35;1.83;;;1.48;;
34585;SDS011;20816;50.950;11.108;2022-08-21T13:00:05;2.63;;;1.35;;
34585;SDS011;20816;50.950;11.108;2022-08-21T13:02:37;4.78;;;1.20;;
34585;SDS011;20816;50.950;11.108;2022-08-21T13:05:15;3.30;;;1.52;;
34585;SDS011;20816;50.950;11.108;2022-08-21T13:07:47;2.13;;;1.70;;
34585;SDS011;20816;50.950;11.108;2022-08-21T13:10:19;2.60;;;1.08;;
34585;SDS011;20816;50.950;11.108;2022-08-21T13:12:48;2.42;;;1.02;;
34585;SDS011;20816;50.950;11.108;2022-08-21T13:15:21;3.53;;;1.60;;
34585;SDS011;20816;50.950;11.108;2022-08-21T13:17:58;2.55;;;1.25;;
34585;SDS011;20816;50.950;11.108;2022-08-21T13:20:30;1.95;;;1.20;;
34585;SDS011;20816;50.950;11.108;2022-08-21T13:22:59;5.53;;;2.00;;
34585;SDS011;20816;50.950;11.108;2022-08-21T13:25:34;2.80;;;1.20;;
34585;SDS011;20816;50.950;11.108;2022-08-21T13:28:07;2.42;;;1.35;;
34585;SDS011;20816;50.950;11.108;2022-08-21T13:30:42;4.65;;;2.08;;
34585;SDS011;20816;50.950;11.108;2022-08-21T13:33:12;4.05;;;1.48;;
34585;SDS011;20816;50.950;11.108;2022-08-21T13:36:03;1.95;;;1.20;;
34585;SDS011;20816;50.950;11.108;2022-08-21T13:38:35;1.42;;;0.95;;
34585;SDS011;20816;50.950;11.108;2022-08-21T13:41:04;2.30;;;1.33;;
34585;SDS011;20816;50.950;11.108;2022-08-21T13:43:37;1.60;;;1.00;;
34585;SDS011;20816;50.950;11.108;2022-08-21T13:46:07;1.63;;;1.20;;
34585;SDS011;20816;50.950;11.108;2022-08-21T13:48:38;3.90;;;1.20;;
34585;SDS011;20816;50.950;11.108;2022-08-21T13:51:05;3.10;;;0.85;;
34585;SDS011;20816;50.950;11.108;2022-08-21T13:53:36;1.70;;;1.08;;
34585;SDS011;20816;50.950;11.108;2022-08-21T13:57:01;1.13;;;0.85;;
34585;SDS011;20816;50.950;11.108;2022-08-21T13:59:11;1.90;;;1.17;;
34585;SDS011;20816;50.950;11.108;2022-08-21T14:01:49;2.05;;;1.38;;
34585;SDS011;20816;50.950;11.108;2022-08-21T14:07:03;1.38;;;1.20;;
34585;SDS011;20816;50.950;11.108;2022-08-21T14:09:43;2.75;;;1.45;;
34585;SDS011;20816;50.950;11.108;2022-08-21T14:12:12;4.18;;;0.90;;
34585;SDS011;20816;50.950;11.108;2022-08-21T14:14:49;2.72;;;1.05;;
34585;SDS011;20816;50.950;11.108;2022-08-21T14:17:27;1.95;;;1.05;;
34585;SDS011;20816;50.950;11.108;2022-08-21T14:20:09;4.18;;;0.85;;
34585;SDS011;20816;50.950;11.108;2022-08-21T14:25:06;3.00;;;1.00;;
34585;SDS011;20816;50.950;11.108;2022-08-21T14:27:55;1.40;;;1.02;;
34585;SDS011;20816;50.950;11.108;2022-08-21T14:30:35;1.10;;;0.93;;
34585;SDS011;20816;50.950;11.108;2022-08-21T14:33:09;4.65;;;1.10;;
34585;SDS011;20816;50.950;11.108;2022-08-21T14:35:38;1.48;;;1.33;;
34585;SDS011;20816;50.950;11.108;2022-08-21T14:38:15;1.20;;;0.80;;
34585;SDS011;20816;50.950;11.108;2022-08-21T14:40:46;2.47;;;1.00;;
34585;SDS011;20816;50.950;11.108;2022-08-21T14:43:16;0.98;;;0.98;;
34585;SDS011;20816;50.950;11.108;2022-08-21T14:45:45;3.17;;;1.15;;
34585;SDS011;20816;50.950;11.108;2022-08-21T14:48:12;1.45;;;0.90;;
34585;SDS011;20816;50.950;11.108;2022-08-21T14:50:39;2.28;;;1.00;;
34585;SDS011;20816;50.950;11.108;2022-08-21T14:53:06;2.30;;;1.10;;
34585;SDS011;20816;50.950;11.108;2022-08-21T14:55:36;2.33;;;1.02;;
34585;SDS011;20816;50.950;11.108;2022-08-21T14:58:23;1.52;;;0.93;;
34585;SDS011;20816;50.950;11.108;2022-08-21T15:00:51;1.92;;;1.38;;
34585;SDS011;20816;50.950;11.108;2022-08-21T15:03:20;1.95;;;0.90;;
34585;SDS011;20816;50.950;11.108;2022-08-21T15:05:48;1.40;;;1.30;;
34585;SDS011;20816;50.950;11.108;2022-08-21T15:08:15;6.05;;;1.27;;
34585;SDS011;20816;50.950;11.108;2022-08-21T15:10:43;1.15;;;1.00;;
34585;SDS011;20816;50.950;11.108;2022-08-21T15:13:30;2.80;;;1.30;;
34585;SDS011;20816;50.950;11.108;2022-08-21T15:15:57;2.65;;;1.30;;
34585;SDS011;20816;50.950;11.108;2022-08-21T15:18:26;2.25;;;0.98;;
34585;SDS011;20816;50.950;11.108;2022-08-21T15:20:53;5.35;;;1.08;;
34585;SDS011;20816;50.950;11.108;2022-08-21T15:23:20;1.40;;;1.15;;
34585;SDS011;20816;50.950;11.108;2022-08-21T15:25:47;3.08;;;0.75;;
34585;SDS011;20816;50.950;11.108;2022-08-21T15:28:15;3.13;;;1.23;;
34585;SDS011;20816;50.950;11.108;2022-08-21T15:30:43;2.25;;;0.98;;
34585;SDS011;20816;50.950;11.108;2022-08-21T15:33:11;1.58;;;0.80;;
34585;SDS011;20816;50.950;11.108;2022-08-21T15:35:38;1.25;;;1.10;;
34585;SDS011;20816;50.950;11.108;2022-08-21T15:38:06;5.00;;;1.65;;
34585;SDS011;20816;50.950;11.108;2022-08-21T15:40:37;1.88;;;1.10;;
34585;SDS011;20816;50.950;11.108;2022-08-21T15:43:26;2.25;;;0.85;;
34585;SDS011;20816;50.950;11.108;2022-08-21T15:45:59;1.38;;;0.70;;
34585;SDS011;20816;50.950;11.108;2022-08-21T15:48:27;1.60;;;1.00;;
34585;SDS011;20816;50.950;11.108;2022-08-21T15:50:54;1.95;;;1.00;;
34585;SDS011;20816;50.950;11.108;2022-08-21T15:53:21;2.50;;;1.05;;
34585;SDS011;20816;50.950;11.108;2022-08-21T15:55:48;1.20;;;0.88;;
34585;SDS011;20816;50.950;11.108;2022-08-21T15:58:15;1.05;;;0.90;;
34585;SDS011;20816;50.950;11.108;2022-08-21T16:00:42;1.25;;;0.93;;
34585;SDS011;20816;50.950;11.108;2022-08-21T16:03:11;0.85;;;0.60;;
34585;SDS011;20816;50.950;11.108;2022-08-21T16:05:43;4.22;;;0.90;;
34585;SDS011;20816;50.950;11.108;2022-08-21T16:08:11;1.83;;;1.45;;